sensor_id;sensor_type;location;lat;lon;timestamp;P1;durP1;ratioP1;P2;durP2;ratioP2
18021;SDS011;9136;48.822;7.966;2022-11-15T00:00:48;16.27;;;15.47;;
18021;SDS011;9136;48.822;7.966;2022-11-15T00:03:34;19.23;;;18.33;;
18021;SDS011;9136;48.822;7.966;2022-11-15T00:06:20;14.63;;;13.97;;
18021;SDS011;9136;48.822;7.966;2022-11-15T00:09:06;17.30;;;16.50;;
18021;SDS011;9136;48.822;7.966;2022-11-15T00:11:57;17.40;;;16.60;;
18021;SDS011;9136;48.822;7.966;2022-11-15T00:14:43;15.67;;;14.97;;
18021;SDS011;9136;48.822;7.966;2022-11-15T00:17:29;16.57;;;15.77;;
18021;SDS011;9136;48.822;7.966;2022-11-15T00:20:16;19.33;;;17.67;;
18021;SDS011;9136;48.822;7.966;2022-11-15T00:23:02;19.93;;;19.03;;
18021;SDS011;9136;48.822;7.966;2022-11-15T00:25:54;18.17;;;17.27;;
18021;SDS011;9136;48.822;7.966;2022-11-15T00:28:43;20.83;;;19.83;;
18021;SDS011;9136;48.822;7.966;2022-11-15T00:31:29;17.47;;;16.50;;
18021;SDS011;9136;48.822;7.966;2022-11-15T00:34:17;17.60;;;16.80;;
18021;SDS011;9136;48.822;7.966;2022-11-15T00:37:04;17.13;;;16.40;;
18021;SDS011;9136;48.822;7.966;2022-11-15T00:39:51;18.53;;;17.57;;
18021;SDS011;9136;48.822;7.966;2022-11-15T00:42:38;18.23;;;17.37;;
18021;SDS011;9136;48.822;7.966;2022-11-15T00:45:25;18.10;;;17.20;;
18021;SDS011;9136;48.822;7.966;2022-11-15T00:48:12;17.37;;;16.57;;
18021;SDS011;9136;48.822;7.966;2022-11-15T00:50:59;17.13;;;16.23;;
18021;SDS011;9136;48.822;7.966;2022-11-15T00:53:44;20.07;;;18.97;;
18021;SDS011;9136;48.822;7.966;2022-11-15T00:56:30;18.90;;;17.90;;
18021;SDS011;9136;48.822;7.966;2022-11-15T00:59:16;18.50;;;17.60;;
18021;SDS011;9136;48.822;7.966;2022-11-15T01:02:04;17.00;;;16.10;;
18021;SDS011;9136;48.822;7.966;2022-11-15T01:04:50;16.57;;;15.83;;
18021;SDS011;9136;48.822;7.966;2022-11-15T01:07:37;18.67;;;17.83;;
18021;SDS011;9136;48.822;7.966;2022-11-15T01:10:23;19.83;;;18.83;;
18021;SDS011;9136;48.822;7.966;2022-11-15T01:13:10;16.43;;;15.63;;
18021;SDS011;9136;48.822;7.966;2022-11-15T01:15:56;16.80;;;16.00;;
18021;SDS011;9136;48.822;7.966;2022-11-15T01:18:43;17.33;;;16.47;;
18021;SDS011;9136;48.822;7.966;2022-11-15T01:21:30;19.97;;;18.83;;
18021;SDS011;9136;48.822;7.966;2022-11-15T01:24:16;18.47;;;17.43;;
18021;SDS011;9136;48.822;7.966;2022-11-15T01:26:44;18.73;;;17.93;;
18021;SDS011;9136;48.822;7.966;2022-11-15T01:29:11;21.87;;;20.83;;
18021;SDS011;9136;48.822;7.966;2022-11-15T01:31:39;17.17;;;16.27;;
18021;SDS011;9136;48.822;7.966;2022-11-15T01:34:10;16.90;;;16.13;;
18021;SDS011;9136;48.822;7.966;2022-11-15T01:36:56;15.90;;;15.20;;
18021;SDS011;9136;48.822;7.966;2022-11-15T01:39:43;17.03;;;16.13;;
18021;SDS011;9136;48.822;7.966;2022-11-15T01:42:29;18.10;;;17.20;;
18021;SDS011;9136;48.822;7.966;2022-11-15T01:45:15;19.13;;;18.23;;
18021;SDS011;9136;48.822;7.966;2022-11-15T01:48:02;17.73;;;16.93;;
18021;SDS011;9136;48.822;7.966;2022-11-15T01:50:50;17.37;;;16.57;;
18021;SDS011;9136;48.822;7.966;2022-11-15T01:53:36;17.50;;;16.70;;
18021;SDS011;9136;48.822;7.966;2022-11-15T01:56:27;18.93;;;18.03;;
18021;SDS011;9136;48.822;7.966;2022-11-15T01:59:18;18.10;;;17.23;;
18021;SDS011;9136;48.822;7.966;2022-11-15T02:02:05;17.07;;;16.27;;
18021;SDS011;9136;48.822;7.966;2022-11-15T02:04:51;19.70;;;18.70;;
18021;SDS011;9136;48.822;7.966;2022-11-15T02:07:39;18.77;;;17.77;;
18021;SDS011;9136;48.822;7.966;2022-11-15T02:10:27;16.17;;;15.47;;
18021;SDS011;9136;48.822;7.966;2022-11-15T02:13:14;18.63;;;17.70;;
18021;SDS011;9136;48.822;7.966;2022-11-15T02:16:04;17.27;;;16.47;;
18021;SDS011;9136;48.822;7.966;2022-11-15T02:18:59;18.67;;;17.83;;
18021;SDS011;9136;48.822;7.966;2022-11-15T02:21:57;19.93;;;19.03;;
18021;SDS011;9136;48.822;7.966;2022-11-15T02:25:01;16.40;;;15.70;;
18021;SDS011;9136;48.822;7.966;2022-11-15T02:31:13;16.77;;;16.00;;
18021;SDS011;9136;48.822;7.966;2022-11-15T02:34:07;17.17;;;16.27;;
18021;SDS011;9136;48.822;7.966;2022-11-15T02:37:02;17.37;;;16.57;;
18021;SDS011;9136;48.822;7.966;2022-11-15T02:39:58;17.27;;;16.47;;
18021;SDS011;9136;48.822;7.966;2022-11-15T02:42:53;19.60;;;18.47;;
18021;SDS011;9136;48.822;7.966;2022-11-15T02:46:01;16.93;;;16.13;;
18021;SDS011;9136;48.822;7.966;2022-11-15T02:48:53;18.27;;;17.17;;
18021;SDS011;9136;48.822;7.966;2022-11-15T02:51:40;15.43;;;14.63;;
18021;SDS011;9136;48.822;7.966;2022-11-15T02:54:29;15.83;;;15.00;;
18021;SDS011;9136;48.822;7.966;2022-11-15T02:57:16;17.47;;;16.57;;
18021;SDS011;9136;48.822;7.966;2022-11-15T03:00:08;18.50;;;17.47;;
18021;SDS011;9136;48.822;7.966;2022-11-15T03:03:07;18.60;;;17.70;;
18021;SDS011;9136;48.822;7.966;2022-11-15T03:06:08;16.40;;;15.70;;
18021;SDS011;9136;48.822;7.966;2022-11-15T03:09:03;17.17;;;16.37;;
18021;SDS011;9136;48.822;7.966;2022-11-15T03:11:54;16.50;;;15.80;;
18021;SDS011;9136;48.822;7.966;2022-11-15T03:14:47;17.73;;;16.90;;
18021;SDS011;9136;48.822;7.966;2022-11-15T03:17:43;17.17;;;16.37;;
18021;SDS011;9136;48.822;7.966;2022-11-15T03:20:34;15.80;;;15.10;;
18021;SDS011;9136;48.822;7.966;2022-11-15T03:23:23;18.27;;;17.43;;
18021;SDS011;9136;48.822;7.966;2022-11-15T03:26:11;18.30;;;17.40;;
18021;SDS011;9136;48.822;7.966;2022-11-15T03:29:04;16.40;;;15.60;;
18021;SDS011;9136;48.822;7.966;2022-11-15T03:31:55;17.33;;;16.43;;
18021;SDS011;9136;48.822;7.966;2022-11-15T03:34:47;17.30;;;16.50;;
18021;SDS011;9136;48.822;7.966;2022-11-15T03:37:40;19.43;;;18.43;;
18021;SDS011;9136;48.822;7.966;2022-11-15T03:40:36;17.13;;;16.13;;
18021;SDS011;9136;48.822;7.966;2022-11-15T03:43:29;17.50;;;16.70;;
18021;SDS011;9136;48.822;7.966;2022-11-15T03:46:20;15.83;;;15.13;;
18021;SDS011;9136;48.822;7.966;2022-11-15T03:49:12;18.30;;;17.40;;
18021;SDS011;9136;48.822;7.966;2022-11-15T03:52:03;17.53;;;16.73;;
18021;SDS011;9136;48.822;7.966;2022-11-15T03:54:51;19.60;;;17.87;;
18021;SDS011;9136;48.822;7.966;2022-11-15T03:57:40;17.73;;;16.93;;
18021;SDS011;9136;48.822;7.966;2022-11-15T04:00:28;16.67;;;15.87;;
18021;SDS011;9136;48.822;7.966;2022-11-15T04:03:14;18.87;;;17.97;;
18021;SDS011;9136;48.822;7.966;2022-11-15T04:06:01;18.83;;;17.87;;
18021;SDS011;9136;48.822;7.966;2022-11-15T04:08:46;18.53;;;17.73;;
18021;SDS011;9136;48.822;7.966;2022-11-15T04:11:32;18.23;;;17.43;;
18021;SDS011;9136;48.822;7.966;2022-11-15T04:14:20;20.10;;;19.00;;
18021;SDS011;9136;48.822;7.966;2022-11-15T04:17:06;17.87;;;17.07;;
18021;SDS011;9136;48.822;7.966;2022-11-15T04:19:52;17.77;;;16.90;;
18021;SDS011;9136;48.822;7.966;2022-11-15T04:22:57;18.67;;;17.63;;
18021;SDS011;9136;48.822;7.966;2022-11-15T04:26:03;18.90;;;18.03;;
18021;SDS011;9136;48.822;7.966;2022-11-15T04:28:51;16.37;;;15.67;;
18021;SDS011;9136;48.822;7.966;2022-11-15T04:31:57;16.77;;;16.07;;
18021;SDS011;9136;48.822;7.966;2022-11-15T04:34:43;17.50;;;16.57;;
18021;SDS011;9136;48.822;7.966;2022-11-15T04:37:29;17.13;;;16.33;;
18021;SDS011;9136;48.822;7.966;2022-11-15T04:40:15;16.47;;;15.77;;
18021;SDS011;9136;48.822;7.966;2022-11-15T04:43:01;17.77;;;16.97;;
18021;SDS011;9136;48.822;7.966;2022-11-15T04:45:47;16.60;;;15.90;;
18021;SDS011;9136;48.822;7.966;2022-11-15T04:48:34;18.20;;;17.20;;
18021;SDS011;9136;48.822;7.966;2022-11-15T04:51:20;17.97;;;17.13;;
18021;SDS011;9136;48.822;7.966;2022-11-15T04:54:06;16.80;;;16.00;;
18021;SDS011;9136;48.822;7.966;2022-11-15T04:56:53;16.50;;;15.80;;
18021;SDS011;9136;48.822;7.966;2022-11-15T04:59:39;17.53;;;16.73;;
18021;SDS011;9136;48.822;7.966;2022-11-15T05:02:25;16.27;;;15.47;;
18021;SDS011;9136;48.822;7.966;2022-11-15T05:05:33;15.73;;;15.03;;
18021;SDS011;9136;48.822;7.966;2022-11-15T05:08:19;17.50;;;16.70;;
18021;SDS011;9136;48.822;7.966;2022-11-15T05:11:06;17.57;;;16.77;;
18021;SDS011;9136;48.822;7.966;2022-11-15T05:13:52;17.53;;;16.73;;
18021;SDS011;9136;48.822;7.966;2022-11-15T05:16:38;16.60;;;15.90;;
18021;SDS011;9136;48.822;7.966;2022-11-15T05:19:25;17.63;;;16.83;;
18021;SDS011;9136;48.822;7.966;2022-11-15T05:22:12;16.67;;;15.90;;
18021;SDS011;9136;48.822;7.966;2022-11-15T05:24:59;18.57;;;17.77;;
18021;SDS011;9136;48.822;7.966;2022-11-15T05:27:45;16.67;;;15.87;;
18021;SDS011;9136;48.822;7.966;2022-11-15T05:30:31;18.57;;;17.57;;
18021;SDS011;9136;48.822;7.966;2022-11-15T05:33:17;18.33;;;17.53;;
18021;SDS011;9136;48.822;7.966;2022-11-15T05:36:05;16.33;;;15.63;;
18021;SDS011;9136;48.822;7.966;2022-11-15T05:39:00;18.30;;;17.50;;
18021;SDS011;9136;48.822;7.966;2022-11-15T05:41:44;19.27;;;18.37;;
18021;SDS011;9136;48.822;7.966;2022-11-15T05:44:33;20.20;;;19.30;;
18021;SDS011;9136;48.822;7.966;2022-11-15T05:47:22;18.63;;;17.73;;
18021;SDS011;9136;48.822;7.966;2022-11-15T05:50:13;19.00;;;18.03;;
18021;SDS011;9136;48.822;7.966;2022-11-15T05:52:44;19.37;;;18.27;;
18021;SDS011;9136;48.822;7.966;2022-11-15T05:55:14;19.20;;;18.20;;
18021;SDS011;9136;48.822;7.966;2022-11-15T05:58:02;17.03;;;16.23;;
18021;SDS011;9136;48.822;7.966;2022-11-15T06:00:48;18.03;;;17.23;;
18021;SDS011;9136;48.822;7.966;2022-11-15T06:03:19;19.30;;;18.37;;
18021;SDS011;9136;48.822;7.966;2022-11-15T06:06:05;19.03;;;18.07;;
18021;SDS011;9136;48.822;7.966;2022-11-15T06:08:34;18.67;;;17.83;;
18021;SDS011;9136;48.822;7.966;2022-11-15T06:11:05;22.37;;;21.27;;
18021;SDS011;9136;48.822;7.966;2022-11-15T06:13:35;18.10;;;17.10;;
18021;SDS011;9136;48.822;7.966;2022-11-15T06:16:03;19.47;;;18.47;;
18021;SDS011;9136;48.822;7.966;2022-11-15T06:18:32;22.00;;;20.90;;
18021;SDS011;9136;48.822;7.966;2022-11-15T06:21:00;21.17;;;20.07;;
18021;SDS011;9136;48.822;7.966;2022-11-15T06:23:32;18.60;;;17.67;;
18021;SDS011;9136;48.822;7.966;2022-11-15T06:26:01;17.47;;;16.57;;
18021;SDS011;9136;48.822;7.966;2022-11-15T06:28:31;17.63;;;16.83;;
18021;SDS011;9136;48.822;7.966;2022-11-15T06:31:02;18.67;;;17.60;;
18021;SDS011;9136;48.822;7.966;2022-11-15T06:33:30;19.57;;;18.47;;
18021;SDS011;9136;48.822;7.966;2022-11-15T06:36:00;17.67;;;16.87;;
18021;SDS011;9136;48.822;7.966;2022-11-15T06:38:28;18.90;;;18.10;;
18021;SDS011;9136;48.822;7.966;2022-11-15T06:41:14;15.27;;;14.57;;
18021;SDS011;9136;48.822;7.966;2022-11-15T06:44:02;17.07;;;16.13;;
18021;SDS011;9136;48.822;7.966;2022-11-15T06:46:48;18.37;;;17.50;;
18021;SDS011;9136;48.822;7.966;2022-11-15T06:49:34;18.10;;;17.20;;
18021;SDS011;9136;48.822;7.966;2022-11-15T06:52:25;18.50;;;17.67;;
18021;SDS011;9136;48.822;7.966;2022-11-15T06:55:16;18.70;;;17.70;;
18021;SDS011;9136;48.822;7.966;2022-11-15T06:58:03;18.63;;;17.70;;
18021;SDS011;9136;48.822;7.966;2022-11-15T07:00:32;18.83;;;17.93;;
18021;SDS011;9136;48.822;7.966;2022-11-15T07:03:21;17.63;;;16.83;;
18021;SDS011;9136;48.822;7.966;2022-11-15T07:06:07;19.40;;;18.30;;
18021;SDS011;9136;48.822;7.966;2022-11-15T07:08:54;17.43;;;16.60;;
18021;SDS011;9136;48.822;7.966;2022-11-15T07:11:40;18.83;;;17.87;;
18021;SDS011;9136;48.822;7.966;2022-11-15T07:14:26;17.77;;;16.97;;
18021;SDS011;9136;48.822;7.966;2022-11-15T07:17:17;18.17;;;17.20;;
18021;SDS011;9136;48.822;7.966;2022-11-15T07:20:03;21.00;;;20.00;;
18021;SDS011;9136;48.822;7.966;2022-11-15T07:22:50;19.40;;;18.47;;
18021;SDS011;9136;48.822;7.966;2022-11-15T07:25:37;19.47;;;18.33;;
18021;SDS011;9136;48.822;7.966;2022-11-15T07:28:24;17.37;;;16.57;;
18021;SDS011;9136;48.822;7.966;2022-11-15T07:31:12;21.53;;;20.43;;
18021;SDS011;9136;48.822;7.966;2022-11-15T07:34:01;19.27;;;18.37;;
18021;SDS011;9136;48.822;7.966;2022-11-15T07:36:49;18.37;;;17.40;;
18021;SDS011;9136;48.822;7.966;2022-11-15T07:39:37;19.30;;;18.10;;
18021;SDS011;9136;48.822;7.966;2022-11-15T07:42:24;19.40;;;18.47;;
18021;SDS011;9136;48.822;7.966;2022-11-15T07:45:30;17.50;;;16.60;;
18021;SDS011;9136;48.822;7.966;2022-11-15T07:48:19;17.13;;;16.23;;
18021;SDS011;9136;48.822;7.966;2022-11-15T07:51:09;16.93;;;16.13;;
18021;SDS011;9136;48.822;7.966;2022-11-15T07:53:59;18.60;;;17.70;;
18021;SDS011;9136;48.822;7.966;2022-11-15T07:56:47;20.43;;;19.33;;
18021;SDS011;9136;48.822;7.966;2022-11-15T07:59:34;17.13;;;16.33;;
18021;SDS011;9136;48.822;7.966;2022-11-15T08:02:22;18.87;;;17.87;;
18021;SDS011;9136;48.822;7.966;2022-11-15T08:05:10;15.50;;;14.80;;
18021;SDS011;9136;48.822;7.966;2022-11-15T08:07:59;19.43;;;18.00;;
18021;SDS011;9136;48.822;7.966;2022-11-15T08:10:47;19.10;;;17.73;;
18021;SDS011;9136;48.822;7.966;2022-11-15T08:13:35;20.80;;;19.70;;
18021;SDS011;9136;48.822;7.966;2022-11-15T08:16:23;17.33;;;16.53;;
18021;SDS011;9136;48.822;7.966;2022-11-15T08:19:11;16.33;;;15.47;;
18021;SDS011;9136;48.822;7.966;2022-11-15T08:21:58;16.87;;;16.07;;
18021;SDS011;9136;48.822;7.966;2022-11-15T08:24:48;16.20;;;15.47;;
18021;SDS011;9136;48.822;7.966;2022-11-15T08:27:36;18.20;;;17.30;;
18021;SDS011;9136;48.822;7.966;2022-11-15T08:30:24;17.20;;;16.40;;
18021;SDS011;9136;48.822;7.966;2022-11-15T08:33:13;17.40;;;16.47;;
18021;SDS011;9136;48.822;7.966;2022-11-15T08:36:01;17.23;;;16.23;;
18021;SDS011;9136;48.822;7.966;2022-11-15T08:38:49;16.90;;;16.00;;
18021;SDS011;9136;48.822;7.966;2022-11-15T08:41:38;19.10;;;18.20;;
18021;SDS011;9136;48.822;7.966;2022-11-15T08:44:26;16.67;;;15.77;;
18021;SDS011;9136;48.822;7.966;2022-11-15T08:47:14;20.03;;;18.93;;
18021;SDS011;9136;48.822;7.966;2022-11-15T08:50:02;16.33;;;15.57;;
18021;SDS011;9136;48.822;7.966;2022-11-15T08:52:50;18.13;;;17.30;;
18021;SDS011;9136;48.822;7.966;2022-11-15T08:55:38;17.67;;;16.77;;
18021;SDS011;9136;48.822;7.966;2022-11-15T08:58:29;16.47;;;15.53;;
18021;SDS011;9136;48.822;7.966;2022-11-15T09:01:17;16.17;;;15.40;;
18021;SDS011;9136;48.822;7.966;2022-11-15T09:04:07;17.23;;;16.43;;
18021;SDS011;9136;48.822;7.966;2022-11-15T09:06:55;18.13;;;17.33;;
18021;SDS011;9136;48.822;7.966;2022-11-15T09:09:42;16.83;;;16.03;;
18021;SDS011;9136;48.822;7.966;2022-11-15T09:12:30;14.70;;;14.07;;
18021;SDS011;9136;48.822;7.966;2022-11-15T09:15:20;17.27;;;16.47;;
18021;SDS011;9136;48.822;7.966;2022-11-15T09:18:07;16.43;;;15.67;;
18021;SDS011;9136;48.822;7.966;2022-11-15T09:20:55;16.43;;;15.67;;
18021;SDS011;9136;48.822;7.966;2022-11-15T09:23:44;18.83;;;17.93;;
18021;SDS011;9136;48.822;7.966;2022-11-15T09:26:32;17.17;;;16.37;;
18021;SDS011;9136;48.822;7.966;2022-11-15T09:29:22;17.13;;;16.33;;
18021;SDS011;9136;48.822;7.966;2022-11-15T09:32:11;17.17;;;16.37;;
18021;SDS011;9136;48.822;7.966;2022-11-15T09:34:59;18.73;;;17.83;;
18021;SDS011;9136;48.822;7.966;2022-11-15T09:37:47;16.80;;;16.00;;
18021;SDS011;9136;48.822;7.966;2022-11-15T09:40:37;16.73;;;15.90;;
18021;SDS011;9136;48.822;7.966;2022-11-15T09:43:28;19.47;;;18.37;;
18021;SDS011;9136;48.822;7.966;2022-11-15T09:46:20;17.43;;;16.50;;
18021;SDS011;9136;48.822;7.966;2022-11-15T09:55:34;18.33;;;17.53;;
18021;SDS011;9136;48.822;7.966;2022-11-15T09:59:15;17.10;;;16.33;;
18021;SDS011;9136;48.822;7.966;2022-11-15T10:02:15;17.43;;;16.40;;
18021;SDS011;9136;48.822;7.966;2022-11-15T10:05:20;18.00;;;17.17;;
18021;SDS011;9136;48.822;7.966;2022-11-15T10:08:16;19.53;;;18.53;;
18021;SDS011;9136;48.822;7.966;2022-11-15T10:11:16;16.53;;;15.73;;
18021;SDS011;9136;48.822;7.966;2022-11-15T10:14:09;16.63;;;15.70;;
18021;SDS011;9136;48.822;7.966;2022-11-15T10:20:40;19.17;;;18.07;;
18021;SDS011;9136;48.822;7.966;2022-11-15T10:23:33;17.70;;;16.90;;
18021;SDS011;9136;48.822;7.966;2022-11-15T10:26:22;18.50;;;17.60;;
18021;SDS011;9136;48.822;7.966;2022-11-15T10:29:11;16.07;;;15.37;;
18021;SDS011;9136;48.822;7.966;2022-11-15T10:31:59;16.33;;;15.63;;
18021;SDS011;9136;48.822;7.966;2022-11-15T10:34:47;17.27;;;16.33;;
18021;SDS011;9136;48.822;7.966;2022-11-15T10:37:35;16.97;;;16.17;;
18021;SDS011;9136;48.822;7.966;2022-11-15T10:40:24;15.63;;;14.77;;
18021;SDS011;9136;48.822;7.966;2022-11-15T10:43:14;16.40;;;15.70;;
18021;SDS011;9136;48.822;7.966;2022-11-15T10:46:14;16.60;;;15.73;;
18021;SDS011;9136;48.822;7.966;2022-11-15T10:49:12;16.43;;;15.73;;
18021;SDS011;9136;48.822;7.966;2022-11-15T10:52:01;16.33;;;15.53;;
18021;SDS011;9136;48.822;7.966;2022-11-15T10:54:52;16.77;;;15.97;;
18021;SDS011;9136;48.822;7.966;2022-11-15T10:57:48;15.33;;;14.63;;
18021;SDS011;9136;48.822;7.966;2022-11-15T11:00:39;16.03;;;15.27;;
18021;SDS011;9136;48.822;7.966;2022-11-15T11:03:28;15.07;;;14.40;;
18021;SDS011;9136;48.822;7.966;2022-11-15T11:06:21;17.03;;;16.23;;
18021;SDS011;9136;48.822;7.966;2022-11-15T11:09:10;15.93;;;15.23;;
18021;SDS011;9136;48.822;7.966;2022-11-15T11:12:10;15.37;;;14.67;;
18021;SDS011;9136;48.822;7.966;2022-11-15T11:15:00;15.43;;;14.73;;
18021;SDS011;9136;48.822;7.966;2022-11-15T11:18:01;15.27;;;14.57;;
18021;SDS011;9136;48.822;7.966;2022-11-15T11:20:56;15.07;;;14.37;;
18021;SDS011;9136;48.822;7.966;2022-11-15T11:23:50;15.83;;;15.13;;
18021;SDS011;9136;48.822;7.966;2022-11-15T11:26:42;14.83;;;14.20;;
18021;SDS011;9136;48.822;7.966;2022-11-15T11:29:41;16.07;;;15.27;;
18021;SDS011;9136;48.822;7.966;2022-11-15T11:32:49;15.00;;;14.30;;
18021;SDS011;9136;48.822;7.966;2022-11-15T11:35:58;14.63;;;13.93;;
18021;SDS011;9136;48.822;7.966;2022-11-15T11:39:10;14.60;;;13.80;;
18021;SDS011;9136;48.822;7.966;2022-11-15T11:42:13;15.10;;;14.23;;
18021;SDS011;9136;48.822;7.966;2022-11-15T11:45:23;13.77;;;13.17;;
18021;SDS011;9136;48.822;7.966;2022-11-15T11:48:21;14.77;;;14.07;;
18021;SDS011;9136;48.822;7.966;2022-11-15T11:51:23;14.53;;;13.93;;
18021;SDS011;9136;48.822;7.966;2022-11-15T11:54:19;14.70;;;14.07;;
18021;SDS011;9136;48.822;7.966;2022-11-15T11:57:13;16.00;;;15.30;;
18021;SDS011;9136;48.822;7.966;2022-11-15T12:00:12;14.17;;;13.57;;
18021;SDS011;9136;48.822;7.966;2022-11-15T12:03:05;15.47;;;14.77;;
18021;SDS011;9136;48.822;7.966;2022-11-15T12:05:59;14.57;;;13.97;;
18021;SDS011;9136;48.822;7.966;2022-11-15T12:08:52;15.67;;;14.97;;
18021;SDS011;9136;48.822;7.966;2022-11-15T12:11:48;15.53;;;14.83;;
18021;SDS011;9136;48.822;7.966;2022-11-15T12:14:43;15.50;;;14.80;;
18021;SDS011;9136;48.822;7.966;2022-11-15T12:17:35;14.43;;;13.83;;
18021;SDS011;9136;48.822;7.966;2022-11-15T12:20:26;15.40;;;14.70;;
18021;SDS011;9136;48.822;7.966;2022-11-15T12:23:17;15.13;;;14.47;;
18021;SDS011;9136;48.822;7.966;2022-11-15T12:26:10;14.70;;;14.10;;
18021;SDS011;9136;48.822;7.966;2022-11-15T12:29:05;14.67;;;13.97;;
18021;SDS011;9136;48.822;7.966;2022-11-15T12:32:02;14.07;;;13.47;;
18021;SDS011;9136;48.822;7.966;2022-11-15T12:34:51;15.43;;;14.73;;
18021;SDS011;9136;48.822;7.966;2022-11-15T12:41:11;14.90;;;14.23;;
18021;SDS011;9136;48.822;7.966;2022-11-15T12:44:03;14.67;;;14.07;;
18021;SDS011;9136;48.822;7.966;2022-11-15T12:47:01;14.30;;;13.63;;
18021;SDS011;9136;48.822;7.966;2022-11-15T12:49:51;13.23;;;12.63;;
18021;SDS011;9136;48.822;7.966;2022-11-15T12:52:42;14.20;;;13.50;;
18021;SDS011;9136;48.822;7.966;2022-11-15T12:56:09;14.20;;;13.60;;
18021;SDS011;9136;48.822;7.966;2022-11-15T13:02:18;13.90;;;13.30;;
18021;SDS011;9136;48.822;7.966;2022-11-15T13:08:42;14.23;;;13.63;;
18021;SDS011;9136;48.822;7.966;2022-11-15T13:14:49;15.50;;;14.77;;
18021;SDS011;9136;48.822;7.966;2022-11-15T13:17:40;13.27;;;12.67;;
18021;SDS011;9136;48.822;7.966;2022-11-15T13:20:30;15.60;;;14.90;;
18021;SDS011;9136;48.822;7.966;2022-11-15T13:23:18;16.17;;;15.37;;
18021;SDS011;9136;48.822;7.966;2022-11-15T13:26:13;14.00;;;13.40;;
18021;SDS011;9136;48.822;7.966;2022-11-15T13:29:03;14.37;;;13.70;;
18021;SDS011;9136;48.822;7.966;2022-11-15T13:31:51;14.33;;;13.73;;
18021;SDS011;9136;48.822;7.966;2022-11-15T13:34:40;14.60;;;13.97;;
18021;SDS011;9136;48.822;7.966;2022-11-15T13:37:32;14.40;;;13.70;;
18021;SDS011;9136;48.822;7.966;2022-11-15T13:40:23;15.07;;;14.37;;
18021;SDS011;9136;48.822;7.966;2022-11-15T13:43:23;15.23;;;14.53;;
18021;SDS011;9136;48.822;7.966;2022-11-15T13:46:33;15.40;;;14.70;;
18021;SDS011;9136;48.822;7.966;2022-11-15T13:49:21;14.70;;;14.00;;
18021;SDS011;9136;48.822;7.966;2022-11-15T13:52:18;15.57;;;14.87;;
18021;SDS011;9136;48.822;7.966;2022-11-15T13:55:10;16.40;;;15.67;;
18021;SDS011;9136;48.822;7.966;2022-11-15T13:58:01;14.97;;;14.27;;
18021;SDS011;9136;48.822;7.966;2022-11-15T14:00:58;13.97;;;13.37;;
18021;SDS011;9136;48.822;7.966;2022-11-15T14:03:49;14.37;;;13.67;;
18021;SDS011;9136;48.822;7.966;2022-11-15T14:06:44;15.40;;;14.70;;
18021;SDS011;9136;48.822;7.966;2022-11-15T14:09:36;14.63;;;13.93;;
18021;SDS011;9136;48.822;7.966;2022-11-15T14:12:30;14.33;;;13.73;;
18021;SDS011;9136;48.822;7.966;2022-11-15T14:15:26;15.30;;;14.63;;
18021;SDS011;9136;48.822;7.966;2022-11-15T14:21:28;15.70;;;15.00;;
18021;SDS011;9136;48.822;7.966;2022-11-15T14:24:16;14.37;;;13.77;;
18021;SDS011;9136;48.822;7.966;2022-11-15T14:27:19;14.87;;;14.23;;
18021;SDS011;9136;48.822;7.966;2022-11-15T14:30:12;15.70;;;15.00;;
18021;SDS011;9136;48.822;7.966;2022-11-15T14:33:01;14.30;;;13.67;;
18021;SDS011;9136;48.822;7.966;2022-11-15T14:36:02;13.07;;;12.47;;
18021;SDS011;9136;48.822;7.966;2022-11-15T14:38:52;15.33;;;14.63;;
18021;SDS011;9136;48.822;7.966;2022-11-15T14:41:41;14.70;;;14.00;;
18021;SDS011;9136;48.822;7.966;2022-11-15T14:44:30;13.57;;;12.97;;
18021;SDS011;9136;48.822;7.966;2022-11-15T14:47:18;14.30;;;13.70;;
18021;SDS011;9136;48.822;7.966;2022-11-15T14:50:06;14.30;;;13.60;;
18021;SDS011;9136;48.822;7.966;2022-11-15T14:52:58;15.60;;;14.87;;
18021;SDS011;9136;48.822;7.966;2022-11-15T14:55:46;15.77;;;15.07;;
18021;SDS011;9136;48.822;7.966;2022-11-15T14:58:33;14.60;;;14.00;;
18021;SDS011;9136;48.822;7.966;2022-11-15T15:01:23;14.03;;;13.33;;
18021;SDS011;9136;48.822;7.966;2022-11-15T15:04:12;16.00;;;15.30;;
18021;SDS011;9136;48.822;7.966;2022-11-15T15:07:00;14.30;;;13.70;;
18021;SDS011;9136;48.822;7.966;2022-11-15T15:09:47;15.07;;;14.37;;
18021;SDS011;9136;48.822;7.966;2022-11-15T15:12:35;15.00;;;14.30;;
18021;SDS011;9136;48.822;7.966;2022-11-15T15:15:24;16.93;;;15.83;;
18021;SDS011;9136;48.822;7.966;2022-11-15T15:18:14;15.43;;;14.73;;
18021;SDS011;9136;48.822;7.966;2022-11-15T15:21:02;16.07;;;15.27;;
18021;SDS011;9136;48.822;7.966;2022-11-15T15:24:07;15.63;;;14.93;;
18021;SDS011;9136;48.822;7.966;2022-11-15T15:27:00;17.53;;;16.73;;
18021;SDS011;9136;48.822;7.966;2022-11-15T15:29:48;15.50;;;14.80;;
18021;SDS011;9136;48.822;7.966;2022-11-15T15:32:36;14.90;;;14.20;;
18021;SDS011;9136;48.822;7.966;2022-11-15T15:35:26;14.80;;;14.10;;
18021;SDS011;9136;48.822;7.966;2022-11-15T15:38:17;15.33;;;14.63;;
18021;SDS011;9136;48.822;7.966;2022-11-15T15:41:07;17.60;;;16.70;;
18021;SDS011;9136;48.822;7.966;2022-11-15T15:43:57;16.57;;;15.57;;
18021;SDS011;9136;48.822;7.966;2022-11-15T15:46:44;17.30;;;16.50;;
18021;SDS011;9136;48.822;7.966;2022-11-15T15:49:32;16.43;;;15.70;;
18021;SDS011;9136;48.822;7.966;2022-11-15T15:52:21;15.17;;;14.47;;
18021;SDS011;9136;48.822;7.966;2022-11-15T15:55:11;16.83;;;16.03;;
18021;SDS011;9136;48.822;7.966;2022-11-15T15:57:58;19.27;;;17.97;;
18021;SDS011;9136;48.822;7.966;2022-11-15T16:00:46;18.50;;;17.43;;
18021;SDS011;9136;48.822;7.966;2022-11-15T16:03:34;16.67;;;15.77;;
18021;SDS011;9136;48.822;7.966;2022-11-15T16:06:32;15.40;;;14.60;;
18021;SDS011;9136;48.822;7.966;2022-11-15T16:09:24;16.17;;;15.47;;
18021;SDS011;9136;48.822;7.966;2022-11-15T16:12:25;18.73;;;17.60;;
18021;SDS011;9136;48.822;7.966;2022-11-15T16:15:13;17.80;;;16.97;;
18021;SDS011;9136;48.822;7.966;2022-11-15T16:18:02;17.10;;;16.20;;
18021;SDS011;9136;48.822;7.966;2022-11-15T16:20:50;19.23;;;17.70;;
18021;SDS011;9136;48.822;7.966;2022-11-15T16:23:42;18.03;;;17.13;;
18021;SDS011;9136;48.822;7.966;2022-11-15T16:26:31;17.67;;;16.77;;
18021;SDS011;9136;48.822;7.966;2022-11-15T16:29:21;17.97;;;16.83;;
18021;SDS011;9136;48.822;7.966;2022-11-15T16:32:10;15.83;;;15.13;;
18021;SDS011;9136;48.822;7.966;2022-11-15T16:34:58;18.67;;;17.77;;
18021;SDS011;9136;48.822;7.966;2022-11-15T16:37:46;17.80;;;16.90;;
18021;SDS011;9136;48.822;7.966;2022-11-15T16:40:35;17.83;;;17.00;;
18021;SDS011;9136;48.822;7.966;2022-11-15T16:43:24;18.03;;;17.13;;
18021;SDS011;9136;48.822;7.966;2022-11-15T16:46:13;17.47;;;16.57;;
18021;SDS011;9136;48.822;7.966;2022-11-15T16:49:03;17.10;;;15.63;;
18021;SDS011;9136;48.822;7.966;2022-11-15T16:51:50;16.40;;;15.70;;
18021;SDS011;9136;48.822;7.966;2022-11-15T16:54:38;18.73;;;17.33;;
18021;SDS011;9136;48.822;7.966;2022-11-15T16:57:26;22.13;;;20.50;;
18021;SDS011;9136;48.822;7.966;2022-11-15T17:00:17;22.43;;;20.73;;
18021;SDS011;9136;48.822;7.966;2022-11-15T17:03:06;20.47;;;19.20;;
18021;SDS011;9136;48.822;7.966;2022-11-15T17:05:56;19.30;;;18.10;;
18021;SDS011;9136;48.822;7.966;2022-11-15T17:08:44;19.83;;;18.43;;
18021;SDS011;9136;48.822;7.966;2022-11-15T17:11:33;26.20;;;23.73;;
18021;SDS011;9136;48.822;7.966;2022-11-15T17:14:20;20.30;;;19.23;;